createdAt,value
2023-05-06T00:01:48.969Z,5.97
2023-05-06T00:04:16.395Z,5.20
2023-05-06T00:06:44.196Z,5.50
2023-05-06T00:09:11.549Z,5.70
2023-05-06T00:11:38.898Z,5.90
2023-05-06T00:14:06.446Z,5.50
2023-05-06T00:16:33.924Z,6.37
2023-05-06T00:19:01.241Z,5.50
2023-05-06T00:21:28.801Z,5.97
2023-05-06T00:23:56.276Z,5.33
2023-05-06T00:26:23.764Z,6.47
2023-05-06T00:28:51.175Z,6.13
2023-05-06T00:31:18.522Z,5.83
2023-05-06T00:33:46.020Z,5.97
2023-05-06T00:36:13.374Z,5.67
2023-05-06T00:38:41.006Z,5.27
2023-05-06T00:41:10.463Z,5.80
2023-05-06T00:43:37.829Z,5.90
2023-05-06T00:46:06.077Z,6.33
2023-05-06T00:48:33.668Z,6.00
2023-05-06T00:51:01.144Z,5.53
2023-05-06T00:53:31.814Z,6.03
2023-05-06T00:55:59.451Z,5.30
2023-05-06T00:58:26.940Z,5.87
2023-05-06T01:00:55.619Z,5.80
2023-05-06T01:03:23.667Z,5.83
2023-05-06T01:06:28.313Z,6.00
2023-05-06T01:09:07.926Z,5.93
2023-05-06T01:12:01.901Z,6.60
2023-05-06T01:14:57.151Z,6.23
2023-05-06T01:17:28.599Z,6.17
2023-05-06T01:20:01.910Z,6.07
2023-05-06T01:22:32.058Z,5.67
2023-05-06T01:24:59.510Z,6.13
2023-05-06T01:27:26.778Z,6.07
2023-05-06T01:29:54.528Z,6.03
2023-05-06T01:33:01.057Z,6.00
2023-05-06T01:35:41.326Z,7.03
2023-05-06T01:38:32.657Z,6.40
2023-05-06T01:41:02.156Z,6.53
2023-05-06T01:43:38.934Z,6.60
2023-05-06T01:46:07.458Z,6.20
2023-05-06T01:48:38.044Z,6.73
2023-05-06T01:51:05.818Z,6.27
2023-05-06T01:53:33.660Z,6.33
2023-05-06T01:56:00.992Z,5.67
2023-05-06T01:58:28.327Z,6.67
2023-05-06T02:00:56.413Z,6.67
2023-05-06T02:03:23.792Z,6.87
2023-05-06T02:05:51.129Z,6.67
2023-05-06T02:08:18.532Z,5.60
2023-05-06T02:10:46.086Z,6.53
2023-05-06T02:13:13.588Z,6.50
2023-05-06T02:15:40.930Z,6.07
2023-05-06T02:18:08.686Z,6.43
2023-05-06T02:20:36.163Z,6.20
2023-05-06T02:23:03.678Z,6.50
2023-05-06T02:25:33.914Z,6.40
2023-05-06T02:28:01.419Z,7.17
2023-05-06T02:30:31.436Z,5.80
2023-05-06T02:32:58.977Z,6.50
2023-05-06T02:35:26.416Z,7.10
2023-05-06T02:37:56.462Z,6.63
2023-05-06T02:40:23.790Z,6.67
2023-05-06T02:42:51.547Z,5.77
2023-05-06T02:45:19.094Z,6.80
2023-05-06T02:47:46.608Z,6.47
2023-05-06T02:50:14.333Z,6.30
2023-05-06T02:52:41.955Z,6.93
2023-05-06T02:55:10.489Z,6.47
2023-05-06T02:57:37.932Z,6.43
2023-05-06T03:00:06.841Z,6.03
2023-05-06T03:02:34.149Z,6.60
2023-05-06T03:05:01.509Z,7.10
2023-05-06T03:07:28.794Z,6.70
2023-05-06T03:09:56.185Z,6.40
2023-05-06T03:12:23.799Z,6.77
2023-05-06T03:14:51.174Z,7.03
2023-05-06T03:17:18.544Z,6.23
2023-05-06T03:19:46.268Z,6.70
2023-05-06T03:22:13.901Z,7.13
2023-05-06T03:24:41.360Z,7.50
2023-05-06T03:27:09.130Z,6.77
2023-05-06T03:29:36.441Z,6.70
2023-05-06T03:32:05.989Z,7.00
2023-05-06T03:34:33.333Z,6.63
2023-05-06T03:37:00.708Z,7.17
2023-05-06T03:39:28.167Z,6.47
2023-05-06T03:41:55.491Z,6.67
2023-05-06T03:44:22.885Z,6.90
2023-05-06T03:46:50.331Z,6.67
2023-05-06T03:49:17.676Z,7.13
2023-05-06T03:51:44.970Z,6.97
2023-05-06T03:54:12.802Z,6.70
2023-05-06T03:56:40.263Z,6.10
2023-05-06T03:59:09.465Z,6.80
2023-05-06T04:01:37.235Z,7.30
2023-05-06T04:04:04.801Z,6.47
2023-05-06T04:06:32.651Z,6.73
2023-05-06T04:09:00.026Z,6.93
2023-05-06T04:11:29.578Z,7.43
2023-05-06T04:13:57.497Z,7.07
2023-05-06T04:16:25.133Z,6.67
2023-05-06T04:18:53.080Z,7.20
2023-05-06T04:21:20.580Z,6.43
2023-05-06T04:23:47.936Z,7.57
2023-05-06T04:26:15.258Z,7.43
2023-05-06T04:28:43.006Z,6.90
2023-05-06T04:31:10.898Z,6.43
2023-05-06T04:33:38.430Z,6.87
2023-05-06T04:36:06.974Z,6.77
2023-05-06T04:38:35.067Z,6.83
2023-05-06T04:41:02.838Z,7.27
2023-05-06T04:43:30.324Z,6.47
2023-05-06T04:45:58.214Z,7.50
2023-05-06T04:48:26.469Z,7.30
2023-05-06T04:50:53.879Z,6.87
2023-05-06T04:53:21.338Z,7.63
2023-05-06T04:55:48.730Z,8.70
2023-05-06T04:58:16.207Z,7.17
2023-05-06T05:00:43.756Z,7.33
2023-05-06T05:03:11.146Z,7.27
2023-05-06T05:05:38.454Z,8.33
2023-05-06T05:08:06.234Z,7.70
2023-05-06T05:10:33.670Z,7.37
2023-05-06T05:13:01.170Z,7.40
2023-05-06T05:15:29.293Z,7.87
2023-05-06T05:17:56.696Z,7.13
2023-05-06T05:20:24.221Z,7.67
2023-05-06T05:22:51.661Z,7.40
2023-05-06T05:25:19.033Z,7.57
2023-05-06T05:27:46.579Z,7.80
2023-05-06T05:30:14.128Z,7.23
2023-05-06T05:32:41.468Z,7.53
2023-05-06T05:35:10.975Z,7.27
2023-05-06T05:37:38.589Z,7.17
2023-05-06T05:40:06.826Z,7.70
2023-05-06T05:42:34.248Z,10.43
2023-05-06T05:45:01.793Z,10.17
2023-05-06T05:47:31.713Z,13.13
2023-05-06T05:49:59.120Z,11.40
2023-05-06T05:52:26.532Z,11.23
2023-05-06T05:54:53.953Z,10.23
2023-05-06T05:57:22.111Z,9.90
2023-05-06T05:59:49.886Z,7.50
2023-05-06T06:02:17.714Z,8.50
2023-05-06T06:04:52.678Z,8.87
2023-05-06T06:07:20.301Z,7.73
2023-05-06T06:09:49.858Z,10.13
2023-05-06T06:12:18.393Z,14.80
2023-05-06T06:14:48.629Z,22.40
2023-05-06T06:17:16.629Z,55.80
2023-05-06T06:19:47.421Z,14.50
2023-05-06T06:22:14.816Z,26.67
2023-05-06T06:24:42.186Z,54.17
2023-05-06T06:27:09.545Z,27.20
2023-05-06T06:29:37.076Z,44.07
2023-05-06T06:32:04.739Z,57.87
2023-05-06T06:34:32.180Z,30.43
2023-05-06T06:37:00.884Z,19.13
2023-05-06T06:39:28.491Z,14.03
2023-05-06T06:41:59.450Z,18.50
2023-05-06T06:44:26.798Z,9.90
2023-05-06T06:46:54.146Z,8.73
2023-05-06T06:49:21.571Z,8.53
2023-05-06T06:51:48.856Z,8.27
2023-05-06T06:54:16.156Z,8.27
2023-05-06T06:56:43.985Z,8.23
2023-05-06T06:59:11.237Z,8.07
2023-05-06T07:01:40.749Z,7.87
2023-05-06T07:04:11.178Z,7.90
2023-05-06T07:06:38.531Z,8.30
2023-05-06T07:09:06.194Z,8.87
2023-05-06T07:11:34.097Z,8.60
2023-05-06T07:14:01.530Z,14.53
2023-05-06T07:16:28.985Z,14.37
2023-05-06T07:18:56.329Z,10.73
2023-05-06T07:21:23.644Z,9.10
2023-05-06T07:23:52.137Z,8.77
2023-05-06T07:26:19.564Z,9.17
2023-05-06T07:28:47.019Z,10.23
2023-05-06T07:31:16.641Z,9.90
2023-05-06T07:33:43.988Z,9.10
2023-05-06T07:36:11.505Z,9.77
2023-05-06T07:38:38.825Z,8.73
2023-05-06T07:41:06.523Z,8.33
2023-05-06T07:43:34.208Z,8.17
2023-05-06T07:46:04.259Z,9.40
2023-05-06T07:48:33.387Z,10.23
2023-05-06T07:51:01.295Z,9.73
2023-05-06T07:53:28.850Z,9.43
2023-05-06T07:56:02.338Z,8.80
2023-05-06T07:58:31.557Z,8.90
2023-05-06T08:01:00.528Z,10.00
2023-05-06T08:03:29.019Z,10.93
2023-05-06T08:05:56.904Z,11.13
2023-05-06T08:08:28.220Z,11.33
2023-05-06T08:10:56.732Z,9.73
2023-05-06T08:13:24.685Z,15.70
2023-05-06T08:15:52.657Z,14.47
2023-05-06T08:18:22.913Z,18.90
2023-05-06T08:20:53.808Z,19.57
2023-05-06T08:23:21.719Z,13.00
2023-05-06T08:25:50.911Z,10.83
2023-05-06T08:28:18.950Z,24.90
2023-05-06T08:30:48.882Z,13.00
2023-05-06T08:33:20.345Z,20.00
2023-05-06T08:35:48.124Z,15.63
2023-05-06T08:38:15.488Z,25.80
2023-05-06T08:40:45.158Z,30.23
2023-05-06T08:43:20.412Z,18.37
2023-05-06T08:45:48.140Z,12.10
2023-05-06T08:48:15.745Z,10.30
2023-05-06T08:50:44.199Z,9.90
2023-05-06T08:53:17.126Z,11.50
2023-05-06T08:55:46.668Z,18.20
2023-05-06T08:58:17.087Z,17.10
2023-05-06T09:00:47.154Z,24.83
2023-05-06T09:03:14.544Z,14.53
2023-05-06T09:05:42.028Z,11.27
2023-05-06T09:08:10.119Z,14.20
2023-05-06T09:10:47.748Z,13.40
2023-05-06T09:13:17.201Z,11.37
2023-05-06T09:15:48.239Z,11.03
2023-05-06T09:18:18.529Z,12.07
2023-05-06T09:20:48.434Z,10.40
2023-05-06T09:23:18.048Z,10.10
2023-05-06T09:25:47.800Z,12.37
2023-05-06T09:28:15.809Z,14.47
2023-05-06T09:30:45.563Z,12.27
2023-05-06T09:33:13.089Z,9.80
2023-05-06T09:35:43.176Z,9.47
2023-05-06T09:38:11.973Z,10.43
2023-05-06T09:40:40.061Z,11.60
2023-05-06T09:43:08.069Z,10.23
2023-05-06T09:45:37.081Z,10.53
2023-05-06T09:48:04.777Z,9.33
2023-05-06T09:50:33.653Z,9.77
2023-05-06T09:53:04.161Z,10.23
2023-05-06T09:55:32.552Z,10.67
2023-05-06T09:58:02.105Z,10.23
2023-05-06T10:00:32.019Z,10.97
2023-05-06T10:03:03.401Z,9.63
2023-05-06T10:05:32.886Z,9.47
2023-05-06T10:08:00.907Z,13.47
2023-05-06T10:10:30.683Z,12.80
2023-05-06T10:12:58.723Z,12.57
2023-05-06T10:15:27.120Z,12.50
2023-05-06T10:17:56.607Z,11.03
2023-05-06T10:20:27.404Z,10.90
2023-05-06T10:23:14.452Z,11.37
2023-05-06T10:25:44.285Z,11.47
2023-05-06T10:28:23.759Z,11.13
2023-05-06T10:30:59.845Z,10.87
2023-05-06T10:33:28.877Z,11.43
2023-05-06T10:36:04.411Z,10.57
2023-05-06T10:38:39.709Z,9.63
2023-05-06T10:41:09.327Z,10.67
2023-05-06T10:43:42.975Z,10.37
2023-05-06T10:46:12.854Z,9.50
2023-05-06T10:49:11.563Z,10.10
2023-05-06T10:51:40.235Z,10.03
2023-05-06T10:54:10.934Z,10.30
2023-05-06T10:57:04.203Z,11.10
2023-05-06T10:59:32.612Z,9.97
2023-05-06T11:02:06.204Z,9.70
2023-05-06T11:04:35.140Z,9.63
2023-05-06T11:07:11.035Z,10.27
2023-05-06T11:10:07.682Z,9.90
2023-05-06T11:12:52.222Z,9.00
2023-05-06T11:15:39.924Z,9.60
2023-05-06T11:18:28.780Z,10.60
2023-05-06T11:21:05.247Z,10.03
2023-05-06T11:23:52.874Z,10.30
2023-05-06T11:26:20.668Z,11.30
2023-05-06T11:28:50.950Z,10.60
2023-05-06T11:31:20.433Z,10.17
2023-05-06T11:34:09.759Z,10.33
2023-05-06T11:36:45.665Z,10.77
2023-05-06T11:39:13.080Z,10.43
2023-05-06T11:41:44.203Z,9.80
2023-05-06T11:44:13.435Z,11.20
2023-05-06T11:46:41.890Z,10.23
2023-05-06T11:49:16.841Z,10.23
2023-05-06T11:51:44.180Z,11.07
2023-05-06T11:54:12.455Z,10.97
2023-05-06T11:56:47.610Z,10.87
2023-05-06T11:59:15.258Z,11.47
2023-05-06T12:01:48.308Z,11.67
2023-05-06T12:04:16.200Z,11.93
2023-05-06T12:06:43.941Z,11.27
2023-05-06T12:09:12.876Z,10.57
2023-05-06T12:11:43.223Z,10.27
2023-05-06T12:14:12.962Z,10.17
2023-05-06T12:16:42.483Z,9.87
2023-05-06T12:19:10.147Z,9.30
2023-05-06T12:21:40.585Z,10.13
2023-05-06T12:24:09.373Z,10.90
2023-05-06T12:26:51.200Z,12.27
2023-05-06T12:29:19.004Z,12.27
2023-05-06T12:31:49.967Z,11.37
2023-05-06T12:34:18.823Z,12.07
2023-05-06T12:36:48.548Z,12.03
2023-05-06T12:39:17.932Z,12.27
2023-05-06T12:41:46.873Z,12.00
2023-05-06T12:44:34.491Z,13.03
2023-05-06T12:47:11.207Z,12.57
2023-05-06T12:49:48.756Z,12.57
2023-05-06T12:52:18.137Z,13.53
2023-05-06T12:54:46.243Z,13.23
2023-05-06T12:57:13.694Z,13.20
2023-05-06T12:59:41.626Z,13.20
2023-05-06T13:02:10.446Z,13.80
2023-05-06T13:04:38.282Z,12.93
2023-05-06T13:07:06.351Z,13.87
2023-05-06T13:09:33.945Z,14.27
2023-05-06T13:12:02.774Z,15.27
2023-05-06T13:14:30.369Z,14.70
2023-05-06T13:17:00.626Z,15.83
2023-05-06T13:19:33.023Z,15.73
2023-05-06T13:22:01.737Z,14.20
2023-05-06T13:24:30.866Z,15.63
2023-05-06T13:27:01.620Z,13.80
2023-05-06T13:29:30.812Z,13.70
2023-05-06T13:31:58.452Z,13.30
2023-05-06T13:34:26.215Z,15.02
2023-05-06T13:36:55.145Z,12.40
2023-05-06T13:39:23.582Z,13.23
2023-05-06T13:41:51.463Z,12.25
2023-05-06T13:44:20.051Z,12.40
2023-05-06T13:46:48.449Z,12.23
2023-05-06T13:49:15.993Z,11.10
2023-05-06T13:51:43.332Z,12.25
2023-05-06T13:54:10.677Z,10.55
2023-05-06T13:56:38.251Z,11.95
2023-05-06T13:59:05.712Z,12.18
2023-05-06T14:01:33.444Z,12.38
2023-05-06T14:04:01.048Z,11.68
2023-05-06T14:06:28.455Z,12.05
2023-05-06T14:08:56.154Z,12.13
2023-05-06T14:11:24.410Z,12.25
2023-05-06T14:13:52.056Z,13.63
2023-05-06T14:16:19.593Z,13.68
2023-05-06T14:18:56.647Z,13.65
2023-05-06T14:21:24.723Z,13.80
2023-05-06T14:23:52.071Z,13.80
2023-05-06T14:26:19.464Z,15.93
2023-05-06T14:28:46.805Z,13.80
2023-05-06T14:31:14.098Z,17.90
2023-05-06T14:33:41.510Z,13.48
2023-05-06T14:36:10.661Z,13.38
2023-05-06T14:38:38.000Z,12.82
2023-05-06T14:41:05.293Z,13.40
2023-05-06T14:43:33.220Z,13.43
2023-05-06T14:46:01.542Z,13.32
2023-05-06T14:48:28.945Z,13.55
2023-05-06T14:50:56.826Z,13.85
2023-05-06T14:53:24.289Z,12.98
2023-05-06T14:55:51.744Z,14.27
2023-05-06T14:58:19.115Z,13.93
2023-05-06T15:00:53.973Z,13.77
2023-05-06T15:03:21.470Z,14.05
2023-05-06T15:05:51.342Z,14.32
2023-05-06T15:08:18.738Z,13.93
2023-05-06T15:10:46.089Z,14.05
2023-05-06T15:13:13.796Z,13.32
2023-05-06T15:15:41.690Z,14.02
2023-05-06T15:18:09.430Z,13.95
2023-05-06T15:20:38.563Z,14.07
2023-05-06T15:23:06.111Z,13.52
2023-05-06T15:25:36.320Z,13.55
2023-05-06T15:28:05.914Z,13.55
2023-05-06T15:30:33.269Z,14.35
2023-05-06T15:33:03.270Z,14.73
2023-05-06T15:35:32.524Z,12.82
2023-05-06T15:38:00.136Z,13.73
2023-05-06T15:40:29.182Z,14.45
2023-05-06T15:42:57.674Z,14.02
2023-05-06T15:45:25.920Z,14.00
2023-05-06T15:47:54.597Z,13.18
2023-05-06T15:50:32.552Z,13.48
2023-05-06T15:53:02.482Z,14.77
2023-05-06T15:55:35.066Z,14.17
2023-05-06T15:58:08.698Z,15.20
2023-05-06T16:00:36.736Z,15.07
2023-05-06T16:03:10.896Z,14.70
2023-05-06T16:05:40.032Z,15.33
2023-05-06T16:08:07.495Z,14.43
2023-05-06T16:10:35.724Z,15.40
2023-05-06T16:13:03.654Z,14.70
2023-05-06T16:15:32.062Z,15.70
2023-05-06T16:17:59.556Z,16.23
2023-05-06T16:20:30.768Z,16.37
2023-05-06T16:22:58.758Z,16.77
2023-05-06T16:25:29.460Z,16.47
2023-05-06T16:27:57.332Z,15.63
2023-05-06T16:30:24.757Z,16.97
2023-05-06T16:32:52.364Z,17.07
2023-05-06T16:35:19.920Z,16.63
2023-05-06T16:37:47.272Z,16.80
2023-05-06T16:40:18.030Z,17.40
2023-05-06T16:42:46.046Z,16.33
2023-05-06T16:45:13.465Z,16.33
2023-05-06T16:47:41.730Z,13.57
2023-05-06T16:50:10.156Z,14.37
2023-05-06T16:52:37.555Z,15.93
2023-05-06T16:55:08.098Z,15.60
2023-05-06T16:57:38.898Z,14.93
2023-05-06T17:00:12.466Z,15.37
2023-05-06T17:02:40.928Z,15.43
2023-05-06T17:05:08.815Z,14.27
2023-05-06T17:07:36.579Z,13.27
2023-05-06T17:10:04.563Z,13.27
2023-05-06T17:12:33.524Z,13.47
2023-05-06T17:15:08.093Z,13.93
2023-05-06T17:17:36.374Z,13.30
2023-05-06T17:20:05.984Z,12.87
2023-05-06T17:22:33.630Z,13.00
2023-05-06T17:25:01.241Z,13.97
2023-05-06T17:27:29.152Z,14.10
2023-05-06T17:29:58.018Z,13.93
2023-05-06T17:32:26.541Z,14.50
2023-05-06T17:34:54.227Z,14.57
2023-05-06T17:37:22.210Z,16.90
2023-05-06T17:39:49.726Z,16.63
2023-05-06T17:42:17.223Z,15.97
2023-05-06T17:44:44.613Z,14.73
2023-05-06T17:47:11.990Z,15.50
2023-05-06T17:49:39.524Z,15.30
2023-05-06T17:52:07.004Z,15.67
2023-05-06T17:54:35.494Z,15.97
2023-05-06T17:57:03.835Z,15.57
2023-05-06T17:59:31.987Z,15.47
2023-05-06T18:02:00.560Z,16.23
2023-05-06T18:04:28.062Z,15.53
2023-05-06T18:06:56.363Z,16.90
2023-05-06T18:09:23.968Z,16.73
2023-05-06T18:11:51.478Z,17.23
2023-05-06T18:14:20.808Z,18.07
2023-05-06T18:16:48.099Z,17.63
2023-05-06T18:19:15.850Z,17.67
2023-05-06T18:21:43.508Z,18.03
2023-05-06T18:24:16.588Z,18.10
2023-05-06T18:26:45.715Z,17.93
2023-05-06T18:29:14.489Z,18.63
2023-05-06T18:31:42.634Z,17.83
2023-05-06T18:34:11.226Z,18.23
2023-05-06T18:36:39.438Z,17.73
2023-05-06T18:39:08.321Z,18.00
2023-05-06T18:41:35.840Z,17.27
2023-05-06T18:44:04.703Z,17.47
2023-05-06T18:46:33.565Z,17.90
2023-05-06T18:49:01.456Z,18.57
2023-05-06T18:51:29.009Z,17.30
2023-05-06T18:53:57.207Z,28.60
2023-05-06T18:56:24.718Z,17.70
2023-05-06T18:58:55.831Z,17.77
2023-05-06T19:01:25.553Z,17.87
2023-05-06T19:03:53.756Z,17.37
2023-05-06T19:06:21.185Z,17.00
2023-05-06T19:08:48.661Z,16.00
2023-05-06T19:11:18.437Z,16.53
2023-05-06T19:13:46.587Z,17.80
2023-05-06T19:16:21.187Z,16.30
2023-05-06T19:18:48.726Z,16.43
2023-05-06T19:21:16.300Z,16.00
2023-05-06T19:23:43.730Z,17.70
2023-05-06T19:26:12.751Z,16.63
2023-05-06T19:28:41.128Z,15.57
2023-05-06T19:31:12.317Z,16.73
2023-05-06T19:33:40.346Z,15.70
2023-05-06T19:36:07.982Z,16.47
2023-05-06T19:38:35.567Z,16.93
2023-05-06T19:41:03.384Z,17.13
2023-05-06T19:43:31.891Z,17.27
2023-05-06T19:45:59.989Z,17.60
2023-05-06T19:48:27.438Z,17.60
2023-05-06T19:50:54.961Z,16.13
2023-05-06T19:53:24.202Z,16.63
2023-05-06T19:55:53.984Z,17.00
2023-05-06T19:58:21.363Z,18.17
2023-05-06T20:00:50.038Z,17.87
2023-05-06T20:03:17.601Z,16.53
2023-05-06T20:05:45.249Z,16.40
2023-05-06T20:08:12.935Z,17.27
2023-05-06T20:10:40.384Z,16.37
2023-05-06T20:13:07.907Z,17.97
2023-05-06T20:15:36.097Z,16.77
2023-05-06T20:18:03.758Z,15.83
2023-05-06T20:20:34.570Z,16.50
2023-05-06T20:23:02.461Z,15.80
2023-05-06T20:25:32.083Z,16.17
2023-05-06T20:28:00.048Z,16.13
2023-05-06T20:30:27.719Z,16.87
2023-05-06T20:32:59.285Z,15.97
2023-05-06T20:35:27.764Z,17.23
2023-05-06T20:37:56.602Z,18.87
2023-05-06T20:40:23.960Z,18.10
2023-05-06T20:42:51.653Z,17.53
2023-05-06T20:45:18.985Z,18.63
2023-05-06T20:47:47.277Z,19.53
2023-05-06T20:50:17.439Z,20.73
2023-05-06T20:52:46.248Z,22.00
2023-05-06T20:55:14.962Z,16.60
2023-05-06T20:57:43.815Z,16.90
2023-05-06T21:00:11.774Z,20.27
2023-05-06T21:02:41.464Z,21.83
2023-05-06T21:05:10.432Z,14.73
2023-05-06T21:07:38.047Z,16.93
2023-05-06T21:10:06.191Z,15.63
2023-05-06T21:12:34.525Z,15.63
2023-05-06T21:15:03.321Z,14.13
2023-05-06T21:17:31.114Z,13.33
2023-05-06T21:20:02.461Z,19.40
2023-05-06T21:22:32.060Z,15.57
2023-05-06T21:25:02.534Z,15.03
2023-05-06T21:27:29.970Z,15.43
2023-05-06T21:29:57.360Z,14.50
2023-05-06T21:32:24.969Z,24.23
2023-05-06T21:34:53.072Z,16.20
2023-05-06T21:37:20.505Z,13.90
2023-05-06T21:39:48.854Z,13.60
2023-05-06T21:42:16.140Z,18.23
2023-05-06T21:44:43.551Z,21.80
2023-05-06T21:47:11.209Z,24.37
2023-05-06T21:49:38.647Z,12.70
2023-05-06T21:52:06.760Z,20.27
2023-05-06T21:54:34.171Z,13.17
2023-05-06T21:57:01.506Z,52.50
2023-05-06T21:59:29.248Z,25.03
2023-05-06T22:01:57.098Z,13.53
2023-05-06T22:04:24.726Z,22.73
2023-05-06T22:06:52.048Z,12.50
2023-05-06T22:09:21.687Z,12.03
2023-05-06T22:11:49.079Z,12.27
2023-05-06T22:14:17.086Z,14.00
2023-05-06T22:16:48.305Z,13.40
2023-05-06T22:19:15.649Z,12.47
2023-05-06T22:21:43.029Z,12.50
2023-05-06T22:24:10.610Z,12.97
2023-05-06T22:26:37.958Z,13.30
2023-05-06T22:29:05.198Z,13.70
2023-05-06T22:31:32.944Z,13.53
2023-05-06T22:34:04.802Z,14.90
2023-05-06T22:36:35.612Z,15.23
2023-05-06T22:39:03.409Z,15.70
2023-05-06T22:41:32.132Z,15.57
2023-05-06T22:44:02.534Z,14.77
2023-05-06T22:46:30.089Z,15.17
2023-05-06T22:48:58.385Z,15.27
2023-05-06T22:51:25.745Z,14.47
2023-05-06T22:53:53.090Z,15.50
2023-05-06T22:56:20.471Z,16.63
2023-05-06T22:58:47.895Z,15.67
2023-05-06T23:01:15.283Z,16.03
2023-05-06T23:03:42.666Z,16.23
2023-05-06T23:06:11.094Z,16.43
2023-05-06T23:08:38.319Z,14.90
2023-05-06T23:11:05.904Z,14.93
2023-05-06T23:13:36.643Z,15.10
2023-05-06T23:16:04.211Z,14.73
2023-05-06T23:18:32.110Z,13.77
2023-05-06T23:20:59.611Z,13.77
2023-05-06T23:23:27.051Z,14.50
2023-05-06T23:25:54.371Z,13.70
2023-05-06T23:28:21.741Z,14.77
2023-05-06T23:30:50.202Z,14.00
2023-05-06T23:33:17.546Z,13.37
2023-05-06T23:35:45.044Z,13.53
2023-05-06T23:38:12.365Z,13.63
2023-05-06T23:40:39.801Z,13.43
2023-05-06T23:43:10.082Z,14.13
2023-05-06T23:45:37.996Z,13.63
2023-05-06T23:48:06.220Z,13.63
2023-05-06T23:50:33.570Z,13.70
2023-05-06T23:53:01.060Z,14.03
2023-05-06T23:55:29.341Z,14.77
2023-05-06T23:57:57.110Z,14.70
